createdAt,value
2023-01-07T12:49:02.611Z,12.00
2023-01-07T12:51:44.270Z,13.70
2023-01-07T12:54:29.572Z,13.90
2023-01-07T12:57:09.536Z,13.80
2023-01-07T12:59:46.362Z,13.50
2023-01-07T13:02:54.613Z,13.50
2023-01-07T13:05:26.012Z,13.30
2023-01-07T13:08:09.784Z,13.70
2023-01-07T13:10:43.300Z,13.60
2023-01-07T13:13:26.355Z,13.60
2023-01-07T13:15:53.890Z,13.60
2023-01-07T13:18:21.717Z,13.30
2023-01-07T13:21:03.685Z,13.40
2023-01-07T13:24:00.394Z,13.20
2023-01-07T13:26:47.095Z,12.90
2023-01-07T13:29:20.931Z,12.80
2023-01-07T13:32:23.054Z,12.70
2023-01-07T13:34:58.476Z,12.70
2023-01-07T13:37:31.387Z,12.50
2023-01-07T13:40:03.749Z,12.50
2023-01-07T13:42:39.456Z,12.50
2023-01-07T13:45:33.833Z,12.50
2023-01-07T13:48:05.302Z,12.50
2023-01-07T13:50:37.513Z,12.50
2023-01-07T13:53:27.153Z,12.50
2023-01-07T13:56:14.838Z,12.40
2023-01-07T13:58:55.871Z,12.40
2023-01-07T14:01:23.714Z,12.40
2023-01-07T14:03:50.561Z,12.40
2023-01-07T14:06:23.887Z,12.40
2023-01-07T14:09:11.031Z,12.40
2023-01-07T14:11:42.189Z,12.40
2023-01-07T14:14:49.451Z,12.40
2023-01-07T14:17:40.369Z,12.40
2023-01-07T14:20:36.645Z,12.30
2023-01-07T14:23:22.563Z,12.30
2023-01-07T14:26:01.011Z,12.30
2023-01-07T14:28:49.149Z,12.20
2023-01-07T14:31:24.257Z,12.10
2023-01-07T14:33:55.427Z,12.10
2023-01-07T14:36:22.217Z,12.10
2023-01-07T14:38:58.559Z,12.00
2023-01-07T14:41:25.991Z,12.00
2023-01-07T14:44:05.353Z,12.00
2023-01-07T14:46:44.768Z,12.00
2023-01-07T14:49:26.397Z,11.90
2023-01-07T14:51:59.349Z,11.90
2023-01-07T14:54:53.509Z,11.80
2023-01-07T14:57:23.036Z,11.70
2023-01-07T15:00:22.111Z,11.70
2023-01-07T15:03:26.503Z,11.80
2023-01-07T15:06:01.174Z,11.70
2023-01-07T15:08:58.523Z,11.60
2023-01-07T15:11:45.064Z,11.60
2023-01-07T15:14:42.596Z,11.50
2023-01-07T15:17:14.091Z,11.50
2023-01-07T15:19:42.859Z,11.40
2023-01-07T15:22:37.805Z,11.30
2023-01-07T15:25:34.680Z,11.30
2023-01-07T15:28:07.704Z,11.30
2023-01-07T15:30:41.153Z,11.30
2023-01-07T15:33:39.992Z,11.20
2023-01-07T15:36:12.367Z,11.10
2023-01-07T15:38:52.922Z,11.10
2023-01-07T15:41:22.619Z,11.10
2023-01-07T15:43:49.923Z,11.10
2023-01-07T15:46:16.855Z,11.00
2023-01-07T15:48:43.589Z,11.00
2023-01-07T15:51:18.254Z,10.90
2023-01-07T15:53:55.041Z,10.90
2023-01-07T15:56:22.258Z,10.90
2023-01-07T15:58:49.145Z,10.90
2023-01-07T16:01:19.706Z,10.90
2023-01-07T16:03:49.712Z,10.90
2023-01-07T16:06:25.311Z,10.80
2023-01-07T16:08:52.148Z,10.80
2023-01-07T16:11:27.681Z,10.80
2023-01-07T16:13:59.659Z,10.70
2023-01-07T16:16:28.333Z,10.70
2023-01-07T16:18:56.679Z,10.80
2023-01-07T16:21:26.942Z,10.80
2023-01-07T16:23:54.225Z,10.70
2023-01-07T16:26:35.949Z,10.70
2023-01-07T16:29:11.254Z,10.60
2023-01-07T16:31:38.366Z,10.60
2023-01-07T16:34:26.244Z,10.60
2023-01-07T16:36:58.555Z,10.60
2023-01-07T16:39:30.383Z,10.50
2023-01-07T16:42:16.521Z,10.60
2023-01-07T16:44:45.990Z,10.60
2023-01-07T16:47:27.702Z,10.60
2023-01-07T16:50:13.055Z,10.60
2023-01-07T16:52:52.742Z,10.60
2023-01-07T16:55:50.184Z,10.60
2023-01-07T16:58:51.284Z,10.60
2023-01-07T17:01:20.993Z,10.60
2023-01-07T17:03:53.296Z,10.60
2023-01-07T17:06:27.335Z,10.60
2023-01-07T17:08:55.722Z,10.60
2023-01-07T17:11:38.951Z,10.50
2023-01-07T17:14:34.725Z,10.50
2023-01-07T17:17:18.077Z,10.50
2023-01-07T17:19:52.092Z,10.50
2023-01-07T17:22:34.975Z,10.50
2023-01-07T17:25:09.180Z,10.50
2023-01-07T17:27:44.512Z,10.50
2023-01-07T17:30:20.789Z,10.50
2023-01-07T17:32:52.982Z,10.40
2023-01-07T17:35:25.378Z,10.40
2023-01-07T17:37:53.294Z,10.50
2023-01-07T17:40:20.679Z,10.40
2023-01-07T17:43:07.258Z,10.50
2023-01-07T17:45:34.216Z,10.50
2023-01-07T17:48:01.476Z,10.50
2023-01-07T17:50:35.500Z,10.50
2023-01-07T17:53:02.701Z,10.50
2023-01-07T17:55:31.427Z,10.50
2023-01-07T17:57:58.358Z,10.50
2023-01-07T18:00:27.182Z,10.60
2023-01-07T18:02:53.984Z,10.60
2023-01-07T18:05:23.410Z,10.60
2023-01-07T18:07:51.867Z,10.60
2023-01-07T18:10:24.757Z,10.50
2023-01-07T18:12:51.502Z,10.60
2023-01-07T18:15:27.367Z,10.60
2023-01-07T18:17:54.136Z,10.50
2023-01-07T18:20:22.393Z,10.60
2023-01-07T18:22:49.664Z,10.60
2023-01-07T18:25:19.541Z,10.60
2023-01-07T18:27:47.255Z,10.60
2023-01-07T18:30:19.538Z,10.60
2023-01-07T18:32:46.394Z,10.60
2023-01-07T18:35:14.501Z,10.60
2023-01-07T18:37:41.458Z,10.50
2023-01-07T18:40:09.691Z,10.60
2023-01-07T18:42:36.975Z,10.50
2023-01-07T18:45:05.237Z,10.50
2023-01-07T18:47:32.198Z,10.50
2023-01-07T18:49:59.187Z,10.50
2023-01-07T18:52:26.032Z,10.50
2023-01-07T18:54:52.756Z,10.50
2023-01-07T18:57:19.574Z,10.50
2023-01-07T18:59:46.326Z,10.50
2023-01-07T19:02:21.378Z,10.50
2023-01-07T19:04:49.260Z,10.50
2023-01-07T19:07:19.298Z,10.50
2023-01-07T19:09:46.106Z,10.40
2023-01-07T19:12:13.188Z,10.40
2023-01-07T19:14:40.690Z,10.40
2023-01-07T19:17:08.332Z,10.40
2023-01-07T19:19:47.379Z,10.40
2023-01-07T19:22:15.981Z,10.50
2023-01-07T19:24:42.835Z,10.50
2023-01-07T19:27:09.617Z,10.50
2023-01-07T19:29:36.399Z,10.60
2023-01-07T19:32:03.169Z,10.60
2023-01-07T19:34:30.137Z,10.60
2023-01-07T19:36:56.834Z,10.60
2023-01-07T19:39:24.071Z,10.60
2023-01-07T19:41:51.047Z,10.70
2023-01-07T19:44:18.117Z,10.70
2023-01-07T19:46:44.829Z,10.70
2023-01-07T19:49:13.497Z,10.70
2023-01-07T19:51:41.468Z,10.70
2023-01-07T19:54:11.810Z,10.70
2023-01-07T19:56:40.188Z,10.70
2023-01-07T19:59:06.916Z,10.80
2023-01-07T20:01:33.774Z,10.80
2023-01-07T20:04:00.755Z,10.80
2023-01-07T20:06:29.854Z,10.80
2023-01-07T20:08:58.416Z,10.80
2023-01-07T20:11:25.670Z,10.80
2023-01-07T20:13:52.850Z,10.80
2023-01-07T20:16:22.307Z,10.80
2023-01-07T20:18:51.782Z,10.70
2023-01-07T20:21:21.092Z,10.70
2023-01-07T20:23:48.903Z,10.60
2023-01-07T20:26:19.937Z,10.50
2023-01-07T20:28:46.840Z,10.40
2023-01-07T20:31:15.209Z,10.40
2023-01-07T20:33:44.562Z,10.30
2023-01-07T20:36:19.728Z,10.20
2023-01-07T20:38:47.282Z,10.20
2023-01-07T20:41:35.341Z,10.10
2023-01-07T20:44:03.368Z,10.10
2023-01-07T20:46:30.852Z,10.00
2023-01-07T20:48:58.083Z,10.00
2023-01-07T20:51:25.547Z,9.90
2023-01-07T20:53:52.748Z,9.90
2023-01-07T20:56:21.750Z,9.90
2023-01-07T20:58:49.095Z,9.90
2023-01-07T21:01:18.317Z,9.90
2023-01-07T21:03:45.741Z,9.90
2023-01-07T21:06:14.125Z,9.90
2023-01-07T21:08:41.267Z,9.90
2023-01-07T21:11:11.915Z,9.90
2023-01-07T21:13:38.961Z,9.90
2023-01-07T21:16:06.495Z,9.90
2023-01-07T21:18:33.903Z,9.90
2023-01-07T21:21:12.480Z,9.90
2023-01-07T21:23:39.546Z,9.90
2023-01-07T21:26:06.981Z,10.00
2023-01-07T21:28:34.415Z,9.90
2023-01-07T21:31:08.762Z,10.00
2023-01-07T21:33:36.363Z,10.00
2023-01-07T21:36:29.776Z,10.00
2023-01-07T21:38:58.133Z,10.00
2023-01-07T21:41:26.125Z,10.00
2023-01-07T21:43:52.935Z,10.00
2023-01-07T21:46:22.435Z,10.10
2023-01-07T21:48:49.595Z,10.10
2023-01-07T21:51:20.130Z,10.00
2023-01-07T21:53:47.359Z,10.10
2023-01-07T21:56:16.351Z,10.10
2023-01-07T21:58:44.605Z,10.00
2023-01-07T22:01:11.685Z,10.00
2023-01-07T22:03:39.193Z,10.00
2023-01-07T22:06:08.502Z,10.00
2023-01-07T22:08:35.388Z,10.00
2023-01-07T22:11:02.305Z,10.00
2023-01-07T22:13:29.231Z,10.00
2023-01-07T22:15:56.196Z,10.10
2023-01-07T22:18:23.162Z,10.10
2023-01-07T22:20:54.982Z,10.10
2023-01-07T22:23:22.265Z,10.10
2023-01-07T22:25:49.419Z,10.10
2023-01-07T22:28:23.051Z,10.10
2023-01-07T22:30:53.223Z,10.10
2023-01-07T22:33:20.382Z,10.20
2023-01-07T22:35:48.032Z,10.10
2023-01-07T22:38:15.665Z,10.20
2023-01-07T22:40:42.539Z,10.30
2023-01-07T22:43:13.607Z,10.30
2023-01-07T22:46:04.268Z,10.30
2023-01-07T22:48:34.696Z,10.30
2023-01-07T22:51:11.271Z,10.40
2023-01-07T22:53:38.353Z,10.40
2023-01-07T22:56:05.551Z,10.40
2023-01-07T22:58:32.434Z,10.50
2023-01-07T23:00:59.263Z,10.50
2023-01-07T23:03:26.160Z,10.40
2023-01-07T23:05:53.049Z,10.40
2023-01-07T23:08:19.878Z,10.30
2023-01-07T23:10:46.887Z,10.20
2023-01-07T23:13:13.826Z,10.20
2023-01-07T23:15:40.899Z,10.10
2023-01-07T23:18:09.841Z,10.20
2023-01-07T23:20:41.457Z,10.20
2023-01-07T23:23:09.338Z,10.20
2023-01-07T23:25:36.703Z,10.20
2023-01-07T23:28:04.224Z,10.20
2023-01-07T23:30:30.951Z,10.20
2023-01-07T23:32:57.640Z,10.20
2023-01-07T23:35:26.276Z,10.20
2023-01-07T23:37:53.019Z,10.20
2023-01-07T23:40:19.801Z,10.30
2023-01-07T23:42:49.121Z,10.30
2023-01-07T23:45:16.657Z,10.30
2023-01-07T23:47:43.840Z,10.30
2023-01-07T23:50:10.580Z,10.30
2023-01-07T23:52:37.378Z,10.30
2023-01-07T23:55:04.775Z,10.30
2023-01-07T23:57:31.850Z,10.30
2023-01-07T23:59:58.577Z,10.30
